createdAt,value
2023-02-19T00:03:38.179Z,3.50
2023-02-19T00:09:00.799Z,3.46
2023-02-19T00:14:22.653Z,3.60
2023-02-19T00:19:44.545Z,3.68
2023-02-19T00:25:06.484Z,3.66
2023-02-19T00:30:28.484Z,3.53
2023-02-19T00:35:50.282Z,3.65
2023-02-19T00:41:13.711Z,3.60
2023-02-19T00:46:39.159Z,3.65
2023-02-19T00:52:01.046Z,3.71
2023-02-19T00:57:22.916Z,3.80
2023-02-19T01:02:44.939Z,3.73
2023-02-19T01:08:06.766Z,3.75
2023-02-19T01:13:29.145Z,3.81
2023-02-19T01:18:51.599Z,3.91
2023-02-19T01:24:13.476Z,3.85
2023-02-19T01:29:35.460Z,3.86
2023-02-19T01:34:57.395Z,3.94
2023-02-19T01:40:19.311Z,3.90
2023-02-19T01:45:45.057Z,3.94
2023-02-19T01:51:17.137Z,3.87
2023-02-19T01:56:42.186Z,3.94
2023-02-19T02:02:04.343Z,3.93
2023-02-19T02:07:26.793Z,3.97
2023-02-19T02:12:56.898Z,3.94
2023-02-19T02:18:29.203Z,3.88
2023-02-19T02:24:34.192Z,3.72
2023-02-19T02:30:14.889Z,3.79
2023-02-19T02:35:45.060Z,3.77
2023-02-19T02:41:07.152Z,3.65
2023-02-19T02:46:35.320Z,3.81
2023-02-19T02:51:58.887Z,3.71
2023-02-19T02:57:20.947Z,3.66
2023-02-19T03:02:44.112Z,3.69
2023-02-19T03:08:12.743Z,3.65
2023-02-19T03:13:38.321Z,3.84
2023-02-19T03:19:01.324Z,3.65
2023-02-19T03:24:29.783Z,3.68
2023-02-19T03:29:54.565Z,3.70
2023-02-19T03:35:24.320Z,3.48
2023-02-19T03:40:55.786Z,3.41
2023-02-19T03:46:25.640Z,3.41
2023-02-19T03:51:54.563Z,3.46
2023-02-19T03:57:22.401Z,3.35
2023-02-19T04:02:58.489Z,3.38
2023-02-19T04:08:23.999Z,3.15
2023-02-19T04:13:51.015Z,3.07
2023-02-19T04:19:18.849Z,3.02
2023-02-19T04:24:47.553Z,2.92
2023-02-19T04:30:12.606Z,2.86
2023-02-19T04:35:34.515Z,2.79
2023-02-19T04:40:56.522Z,2.72
2023-02-19T04:46:18.429Z,2.75
2023-02-19T04:51:41.080Z,2.76
2023-02-19T04:57:03.139Z,2.64
2023-02-19T05:02:25.002Z,2.70
2023-02-19T05:07:46.822Z,2.63
2023-02-19T05:13:08.860Z,2.69
2023-02-19T05:18:31.759Z,2.67
2023-02-19T05:23:53.633Z,2.69
2023-02-19T05:29:15.556Z,2.57
2023-02-19T05:34:37.397Z,2.76
2023-02-19T05:39:59.397Z,2.77
2023-02-19T05:45:21.269Z,2.74
2023-02-19T05:50:43.137Z,2.75
2023-02-19T05:56:05.407Z,2.67
2023-02-19T06:01:28.567Z,2.69
2023-02-19T06:06:50.622Z,2.82
2023-02-19T06:12:12.475Z,2.94
2023-02-19T06:17:34.803Z,3.06
2023-02-19T06:22:56.653Z,3.22
2023-02-19T06:28:18.540Z,3.33
2023-02-19T06:33:40.723Z,3.30
2023-02-19T06:39:03.991Z,3.19
2023-02-19T06:44:26.051Z,3.53
2023-02-19T06:49:48.000Z,3.74
2023-02-19T06:55:09.924Z,3.78
2023-02-19T07:00:31.838Z,3.93
2023-02-19T07:05:54.147Z,3.71
2023-02-19T07:11:16.202Z,3.79
2023-02-19T07:16:38.353Z,3.72
2023-02-19T07:22:00.260Z,3.79
2023-02-19T07:27:22.116Z,4.10
2023-02-19T07:32:43.985Z,4.12
2023-02-19T07:38:05.842Z,4.14
2023-02-19T07:43:32.548Z,4.22
2023-02-19T07:48:54.725Z,4.22
2023-02-19T07:54:16.589Z,4.76
2023-02-19T07:59:38.461Z,5.04
2023-02-19T08:05:00.413Z,5.30
2023-02-19T08:10:22.317Z,5.15
2023-02-19T08:15:44.997Z,5.00
2023-02-19T08:21:07.108Z,5.01
2023-02-19T08:26:29.126Z,5.00
2023-02-19T08:31:50.990Z,4.83
2023-02-19T08:37:12.976Z,4.94
2023-02-19T08:42:34.809Z,5.01
2023-02-19T08:47:56.711Z,4.90
2023-02-19T08:53:18.561Z,4.93
2023-02-19T08:58:41.349Z,5.19
2023-02-19T09:04:03.214Z,5.09
2023-02-19T09:09:25.093Z,5.23
2023-02-19T09:14:46.996Z,5.27
2023-02-19T09:20:09.187Z,5.44
2023-02-19T09:25:31.036Z,5.69
2023-02-19T09:30:53.084Z,5.70
2023-02-19T09:36:16.380Z,5.75
2023-02-19T09:41:48.043Z,5.64
2023-02-19T09:47:25.214Z,5.68
2023-02-19T09:52:54.757Z,5.78
2023-02-19T09:58:39.797Z,6.63
2023-02-19T10:04:01.800Z,7.99
2023-02-19T10:09:26.725Z,10.15
2023-02-19T10:14:52.181Z,10.61
2023-02-19T10:20:23.952Z,10.15
2023-02-19T10:25:53.498Z,8.31
2023-02-19T10:31:21.788Z,7.68
2023-02-19T10:36:43.787Z,7.60
2023-02-19T10:42:05.913Z,7.40
2023-02-19T10:47:31.201Z,7.90
2023-02-19T10:52:55.851Z,8.61
2023-02-19T10:58:26.388Z,8.10
2023-02-19T11:03:53.565Z,7.71
2023-02-19T11:09:39.282Z,7.74
2023-02-19T11:15:32.250Z,7.77
2023-02-19T11:21:01.964Z,7.69
2023-02-19T11:26:27.765Z,7.61
2023-02-19T11:31:49.702Z,7.52
2023-02-19T11:37:16.878Z,7.17
2023-02-19T11:42:57.891Z,7.00
2023-02-19T11:48:36.207Z,7.01
2023-02-19T11:54:18.341Z,7.12
2023-02-19T12:00:14.704Z,7.49
2023-02-19T12:05:50.482Z,7.62
2023-02-19T12:11:35.743Z,7.80
2023-02-19T12:17:21.170Z,7.55
2023-02-19T12:23:05.339Z,7.92
2023-02-19T12:28:48.192Z,7.52
2023-02-19T12:34:31.325Z,6.72
2023-02-19T12:40:43.992Z,6.72
2023-02-19T12:46:19.939Z,6.44
2023-02-19T12:51:48.705Z,6.08
2023-02-19T12:57:24.752Z,6.27
2023-02-19T13:02:54.766Z,6.44
2023-02-19T13:09:04.738Z,6.62
2023-02-19T13:14:58.699Z,6.97
2023-02-19T13:20:25.403Z,6.96
2023-02-19T13:26:08.556Z,7.23
2023-02-19T13:31:39.411Z,7.34
2023-02-19T13:37:02.344Z,7.40
2023-02-19T13:42:31.272Z,7.12
2023-02-19T13:47:55.924Z,7.10
2023-02-19T13:53:42.485Z,6.69
2023-02-19T13:59:39.221Z,6.38
2023-02-19T14:05:10.713Z,6.27
2023-02-19T14:10:57.013Z,6.16
2023-02-19T14:16:36.778Z,5.94
2023-02-19T14:21:58.665Z,6.38
2023-02-19T14:27:21.477Z,6.26
2023-02-19T14:32:47.436Z,6.24
2023-02-19T14:38:38.146Z,6.00
2023-02-19T14:44:02.125Z,6.10
2023-02-19T14:49:27.282Z,5.91
2023-02-19T14:54:56.135Z,5.53
2023-02-19T15:00:30.241Z,5.79
2023-02-19T15:05:58.877Z,5.80
2023-02-19T15:11:23.563Z,5.83
2023-02-19T15:16:45.733Z,5.69
2023-02-19T15:22:07.604Z,5.74
2023-02-19T15:27:29.760Z,5.66
2023-02-19T15:32:53.697Z,5.59
2023-02-19T15:38:15.912Z,5.28
2023-02-19T15:43:54.327Z,5.09
2023-02-19T15:49:29.361Z,4.95
2023-02-19T15:55:04.165Z,4.86
2023-02-19T16:00:54.261Z,4.84
2023-02-19T16:06:18.081Z,4.76
2023-02-19T16:11:49.757Z,4.78
2023-02-19T16:17:17.940Z,4.57
2023-02-19T16:22:41.938Z,4.55
2023-02-19T16:28:21.672Z,4.36
2023-02-19T16:33:48.478Z,4.47
2023-02-19T16:39:16.881Z,4.31
2023-02-19T16:44:38.760Z,4.18
2023-02-19T16:50:03.563Z,4.32
2023-02-19T16:55:27.461Z,4.50
2023-02-19T17:00:49.411Z,4.49
2023-02-19T17:06:12.016Z,4.46
2023-02-19T17:11:34.667Z,4.56
2023-02-19T17:16:56.672Z,4.59
2023-02-19T17:22:18.595Z,4.58
2023-02-19T17:27:40.723Z,4.46
2023-02-19T17:33:02.853Z,4.39
2023-02-19T17:38:24.731Z,4.20
2023-02-19T17:43:46.661Z,4.11
2023-02-19T17:49:12.374Z,4.11
2023-02-19T17:54:34.349Z,4.14
2023-02-19T17:59:56.229Z,4.16
2023-02-19T18:05:18.255Z,4.03
2023-02-19T18:10:40.162Z,3.92
2023-02-19T18:16:02.098Z,3.81
2023-02-19T18:21:24.017Z,3.71
2023-02-19T18:26:45.905Z,3.62
2023-02-19T18:32:07.984Z,3.63
2023-02-19T18:37:30.462Z,3.46
2023-02-19T18:42:52.450Z,3.42
2023-02-19T18:48:14.298Z,3.31
2023-02-19T18:53:36.511Z,3.20
2023-02-19T18:58:58.752Z,3.22
2023-02-19T19:04:20.716Z,3.05
2023-02-19T19:09:42.642Z,3.06
2023-02-19T19:15:04.809Z,2.95
2023-02-19T19:20:26.628Z,2.89
2023-02-19T19:25:48.484Z,2.90
2023-02-19T19:31:12.132Z,2.80
2023-02-19T19:36:34.508Z,2.75
2023-02-19T19:41:56.975Z,2.70
2023-02-19T19:47:19.294Z,2.66
2023-02-19T19:52:41.301Z,2.57
2023-02-19T19:58:03.320Z,2.48
2023-02-19T20:03:25.251Z,2.42
2023-02-19T20:08:48.531Z,2.37
2023-02-19T20:14:10.534Z,2.36
2023-02-19T20:19:32.416Z,2.30
2023-02-19T20:24:54.905Z,2.22
2023-02-19T20:30:18.721Z,2.15
2023-02-19T20:35:40.655Z,2.11
2023-02-19T20:41:02.983Z,2.03
2023-02-19T20:46:24.966Z,1.96
2023-02-19T20:51:52.985Z,1.98
2023-02-19T20:57:15.064Z,1.87
2023-02-19T21:02:37.040Z,1.78
2023-02-19T21:07:59.100Z,1.80
2023-02-19T21:13:21.178Z,1.75
2023-02-19T21:18:43.158Z,1.68
2023-02-19T21:24:05.199Z,1.68
2023-02-19T21:29:27.148Z,1.61
2023-02-19T21:34:49.068Z,1.63
2023-02-19T21:40:12.374Z,1.58
2023-02-19T21:45:34.344Z,1.55
2023-02-19T21:50:56.397Z,1.57
2023-02-19T21:56:26.203Z,1.53
2023-02-19T22:01:48.502Z,1.52
2023-02-19T22:07:10.360Z,1.40
2023-02-19T22:12:32.232Z,1.45
2023-02-19T22:17:54.208Z,1.45
2023-02-19T22:23:16.043Z,1.49
2023-02-19T22:28:38.787Z,1.54
2023-02-19T22:34:00.650Z,1.52
2023-02-19T22:39:26.615Z,1.50
2023-02-19T22:44:48.508Z,1.49
2023-02-19T22:50:20.828Z,1.44
2023-02-19T22:55:42.708Z,1.49
2023-02-19T23:01:04.808Z,1.62
2023-02-19T23:06:34.220Z,1.60
2023-02-19T23:12:05.082Z,1.69
2023-02-19T23:17:27.057Z,1.80
2023-02-19T23:22:48.900Z,1.83
2023-02-19T23:28:10.870Z,1.94
2023-02-19T23:33:32.850Z,2.02
2023-02-19T23:38:54.743Z,2.09
2023-02-19T23:44:17.571Z,2.06
2023-02-19T23:49:39.649Z,1.97
2023-02-19T23:55:01.509Z,2.00
